createdAt,value
2022-08-05T00:02:51.283Z,23.95
2022-08-05T00:06:05.235Z,23.84
2022-08-05T00:09:19.439Z,23.71
2022-08-05T00:12:22.876Z,23.69
2022-08-05T00:15:55.906Z,23.63
2022-08-05T00:18:50.218Z,23.58
2022-08-05T00:21:54.109Z,23.50
2022-08-05T00:24:57.276Z,23.40
2022-08-05T00:28:00.097Z,23.30
2022-08-05T00:31:04.783Z,23.33
2022-08-05T00:34:54.967Z,23.19
2022-08-05T00:37:51.207Z,23.15
2022-08-05T00:40:58.364Z,23.04
2022-08-05T00:44:03.229Z,23.16
2022-08-05T00:47:06.000Z,23.03
2022-08-05T00:50:09.942Z,22.97
2022-08-05T00:53:44.915Z,22.91
2022-08-05T00:56:36.012Z,22.82
2022-08-05T00:59:44.452Z,22.78
2022-08-05T01:02:50.167Z,22.76
2022-08-05T01:05:54.474Z,22.78
2022-08-05T01:08:57.992Z,22.80
2022-08-05T01:12:18.100Z,23.01
2022-08-05T01:15:35.159Z,23.27
2022-08-05T01:18:48.198Z,23.33
2022-08-05T01:22:15.422Z,23.20
2022-08-05T01:25:40.908Z,23.00
2022-08-05T01:28:54.573Z,23.36
2022-08-05T01:32:01.211Z,23.53
2022-08-05T01:35:10.930Z,23.63
2022-08-05T01:38:14.572Z,23.64
2022-08-05T01:41:33.830Z,23.74
2022-08-05T01:44:37.667Z,23.73
2022-08-05T01:47:43.467Z,23.78
2022-08-05T01:50:50.854Z,23.61
2022-08-05T01:53:58.844Z,23.53
2022-08-05T01:58:29.163Z,23.15
2022-08-05T02:00:30.755Z,23.23
2022-08-05T02:03:39.957Z,23.23
2022-08-05T02:06:45.003Z,23.15
2022-08-05T02:09:48.355Z,23.03
2022-08-05T02:12:57.908Z,22.86
2022-08-05T02:16:33.122Z,22.92
2022-08-05T02:19:47.258Z,22.98
2022-08-05T02:22:57.218Z,23.09
2022-08-05T02:26:01.236Z,23.29
2022-08-05T02:29:06.859Z,23.55
2022-08-05T02:32:30.994Z,23.82
2022-08-05T02:35:37.752Z,23.84
2022-08-05T02:38:52.854Z,23.94
2022-08-05T02:42:01.294Z,24.05
2022-08-05T02:45:05.155Z,23.94
2022-08-05T02:48:12.430Z,24.01
2022-08-05T02:51:16.340Z,24.09
2022-08-05T02:54:35.651Z,24.20
2022-08-05T02:58:12.296Z,24.18
2022-08-05T03:01:03.725Z,24.25
2022-08-05T03:04:14.112Z,24.21
2022-08-05T03:07:59.123Z,24.00
2022-08-05T03:11:53.642Z,24.14
2022-08-05T03:14:08.921Z,24.25
2022-08-05T03:17:16.072Z,24.34
2022-08-05T03:20:19.146Z,24.14
2022-08-05T03:23:24.126Z,24.23
2022-08-05T03:26:31.436Z,24.25
2022-08-05T03:29:45.959Z,24.31
2022-08-05T03:33:02.416Z,24.25
2022-08-05T03:36:06.624Z,24.24
2022-08-05T03:39:20.210Z,24.24
2022-08-05T03:42:32.209Z,24.02
2022-08-05T03:45:57.950Z,24.27
2022-08-05T03:48:59.742Z,24.39
2022-08-05T03:52:50.256Z,24.38
2022-08-05T03:56:04.501Z,24.50
2022-08-05T03:59:03.845Z,24.48
2022-08-05T04:02:14.854Z,24.39
2022-08-05T04:05:23.113Z,24.46
2022-08-05T04:08:34.681Z,24.44
2022-08-05T04:11:50.651Z,24.23
2022-08-05T04:14:57.782Z,24.34
2022-08-05T04:18:06.626Z,24.32
2022-08-05T04:21:11.121Z,24.33
2022-08-05T04:24:19.529Z,24.49
2022-08-05T04:27:41.546Z,24.46
2022-08-05T04:30:45.470Z,24.26
2022-08-05T04:34:17.302Z,24.09
2022-08-05T04:37:11.722Z,24.33
2022-08-05T04:40:19.473Z,24.50
2022-08-05T04:43:22.910Z,24.49
2022-08-05T04:46:28.887Z,24.57
2022-08-05T04:49:38.482Z,24.63
2022-08-05T04:52:54.787Z,24.59
2022-08-05T04:56:14.311Z,24.46
2022-08-05T04:59:23.849Z,24.33
2022-08-05T05:02:43.122Z,24.43
2022-08-05T05:06:39.231Z,24.19
2022-08-05T05:09:13.283Z,24.45
2022-08-05T05:12:17.185Z,24.46
2022-08-05T05:15:59.105Z,24.61
2022-08-05T05:18:57.100Z,24.74
2022-08-05T05:22:24.411Z,24.75
2022-08-05T05:25:32.487Z,24.90
2022-08-05T05:28:42.690Z,24.93
2022-08-05T05:31:47.703Z,25.04
2022-08-05T05:34:52.457Z,25.12
2022-08-05T05:37:59.491Z,25.01
2022-08-05T05:41:04.242Z,25.08
2022-08-05T05:44:35.761Z,25.10
2022-08-05T05:48:06.011Z,25.16
2022-08-05T05:50:59.458Z,25.33
2022-08-05T05:54:18.515Z,25.45
2022-08-05T05:57:22.623Z,25.51
2022-08-05T06:00:27.836Z,25.55
2022-08-05T06:03:53.944Z,25.73
2022-08-05T06:07:01.584Z,25.87
2022-08-05T06:10:10.168Z,25.96
2022-08-05T06:13:14.467Z,26.02
2022-08-05T06:16:30.335Z,26.17
2022-08-05T06:19:35.779Z,25.99
2022-08-05T06:22:40.496Z,26.36
2022-08-05T06:26:12.201Z,26.67
2022-08-05T06:29:25.389Z,27.06
2022-08-05T06:32:31.826Z,27.33
2022-08-05T06:36:04.191Z,27.60
2022-08-05T06:38:57.754Z,27.89
2022-08-05T06:42:04.082Z,28.09
2022-08-05T06:45:09.483Z,28.25
2022-08-05T06:48:53.232Z,28.03
2022-08-05T06:51:36.533Z,28.41
2022-08-05T06:54:44.003Z,28.57
2022-08-05T06:57:57.166Z,28.75
2022-08-05T07:01:07.613Z,28.93
2022-08-05T07:04:10.852Z,28.86
2022-08-05T07:07:24.194Z,28.94
2022-08-05T07:10:52.770Z,28.95
2022-08-05T07:14:20.793Z,28.88
2022-08-05T07:18:02.124Z,29.10
2022-08-05T07:20:56.386Z,29.39
2022-08-05T07:24:01.278Z,29.40
2022-08-05T07:27:05.134Z,29.63
2022-08-05T07:30:28.014Z,29.31
2022-08-05T07:33:36.409Z,29.32
2022-08-05T07:36:41.817Z,29.36
2022-08-05T07:40:04.348Z,29.63
2022-08-05T07:43:14.786Z,29.63
2022-08-05T07:46:26.586Z,29.75
2022-08-05T07:49:29.384Z,29.55
2022-08-05T07:52:32.420Z,29.62
2022-08-05T07:55:44.607Z,29.91
2022-08-05T07:58:59.144Z,29.95
2022-08-05T08:02:03.147Z,30.02
2022-08-05T08:05:07.639Z,30.21
2022-08-05T08:08:14.205Z,30.24
2022-08-05T08:11:19.290Z,30.34
2022-08-05T08:14:30.591Z,30.42
2022-08-05T08:17:34.445Z,30.21
2022-08-05T08:21:00.051Z,30.29
2022-08-05T08:24:04.918Z,30.32
2022-08-05T08:27:09.021Z,30.68
2022-08-05T08:30:20.237Z,30.79
2022-08-05T08:33:37.415Z,30.67
2022-08-05T08:36:48.803Z,30.74
2022-08-05T08:39:53.547Z,30.80
2022-08-05T08:45:19.456Z,31.03
2022-08-05T08:46:24.522Z,30.92
2022-08-05T08:50:06.141Z,31.05
2022-08-05T08:52:58.497Z,31.28
2022-08-05T08:56:05.973Z,31.46
2022-08-05T08:59:14.940Z,31.20
2022-08-05T09:02:26.635Z,31.66
2022-08-05T09:05:38.767Z,31.42
2022-08-05T09:08:53.060Z,31.62
2022-08-05T09:12:00.186Z,31.48
2022-08-05T09:15:09.779Z,31.87
2022-08-05T09:18:13.274Z,31.82
2022-08-05T09:21:20.774Z,31.67
2022-08-05T09:24:24.219Z,31.96
2022-08-05T09:28:05.017Z,32.35
2022-08-05T09:31:43.687Z,32.59
2022-08-05T09:34:52.400Z,32.70
2022-08-05T09:38:17.303Z,32.44
2022-08-05T09:41:19.723Z,32.19
2022-08-05T09:44:40.029Z,32.11
2022-08-05T09:47:54.949Z,32.23
2022-08-05T09:51:04.756Z,32.59
2022-08-05T09:54:31.346Z,32.46
2022-08-05T09:57:35.490Z,32.65
2022-08-05T10:00:56.964Z,32.54
2022-08-05T10:04:10.692Z,32.66
2022-08-05T10:07:20.332Z,32.43
2022-08-05T10:10:54.570Z,32.56
2022-08-05T10:13:57.578Z,32.96
2022-08-05T10:17:36.934Z,33.08
2022-08-05T10:20:47.741Z,33.42
2022-08-05T10:23:59.512Z,33.53
2022-08-05T10:27:03.814Z,33.34
2022-08-05T10:32:48.233Z,33.47
2022-08-05T10:33:36.052Z,33.15
2022-08-05T10:36:40.803Z,33.15
2022-08-05T10:40:03.375Z,32.92
2022-08-05T10:43:35.900Z,33.16
2022-08-05T10:46:50.945Z,33.29
2022-08-05T10:50:33.286Z,33.57
2022-08-05T10:53:48.857Z,33.70
2022-08-05T10:56:57.177Z,34.05
2022-08-05T11:00:20.028Z,33.74
2022-08-05T11:03:26.906Z,33.86
2022-08-05T11:06:31.343Z,33.92
2022-08-05T11:09:52.005Z,33.96
2022-08-05T11:13:40.453Z,34.34
2022-08-05T11:18:07.474Z,34.34
2022-08-05T11:20:56.514Z,34.40
2022-08-05T11:24:16.291Z,34.55
2022-08-05T11:27:51.024Z,34.43
2022-08-05T11:30:56.067Z,34.46
2022-08-05T11:34:08.142Z,34.33
2022-08-05T11:38:30.622Z,35.00
2022-08-05T11:42:01.020Z,35.61
2022-08-05T11:45:05.221Z,36.08
2022-08-05T11:48:11.605Z,35.92
2022-08-05T11:51:14.956Z,35.57
2022-08-05T11:54:40.608Z,35.18
2022-08-05T11:58:10.895Z,35.62
2022-08-05T12:01:15.433Z,35.76
2022-08-05T12:04:23.815Z,35.44
2022-08-05T12:08:03.703Z,36.08
2022-08-05T12:10:59.934Z,36.49
2022-08-05T12:14:10.301Z,37.36
2022-08-05T12:18:04.042Z,37.13
2022-08-05T12:20:38.977Z,36.80
2022-08-05T12:24:07.167Z,37.42
2022-08-05T12:27:21.677Z,37.03
2022-08-05T12:30:38.137Z,37.03
2022-08-05T12:33:48.999Z,37.40
2022-08-05T12:36:53.795Z,38.04
2022-08-05T12:40:03.112Z,37.74
2022-08-05T12:43:07.435Z,37.60
2022-08-05T12:46:28.027Z,37.68
2022-08-05T12:50:03.629Z,36.99
2022-08-05T12:53:08.181Z,37.92
2022-08-05T12:56:35.063Z,38.53
2022-08-05T13:01:57.764Z,39.54
2022-08-05T13:03:14.833Z,41.08
2022-08-05T13:06:19.694Z,41.14
2022-08-05T13:09:27.882Z,40.74
2022-08-05T13:12:31.165Z,42.22
2022-08-05T13:15:42.131Z,43.46
2022-08-05T13:18:57.705Z,43.33
2022-08-05T13:22:01.560Z,42.91
2022-08-05T13:25:19.003Z,42.09
2022-08-05T13:28:22.745Z,42.04
2022-08-05T13:32:03.152Z,42.25
2022-08-05T13:34:49.517Z,42.85
2022-08-05T13:37:55.592Z,43.46
2022-08-05T13:41:00.093Z,42.86
2022-08-05T13:44:03.801Z,43.12
2022-08-05T13:47:08.658Z,42.33
2022-08-05T13:50:16.480Z,43.26
2022-08-05T13:53:19.931Z,43.55
2022-08-05T13:56:22.915Z,42.95
2022-08-05T13:59:27.504Z,43.60
2022-08-05T14:02:33.616Z,43.83
2022-08-05T14:06:04.821Z,44.37
2022-08-05T14:08:59.661Z,42.53
2022-08-05T14:12:17.781Z,41.62
2022-08-05T14:16:05.217Z,42.13
2022-08-05T14:18:44.726Z,42.56
2022-08-05T14:22:10.085Z,41.17
2022-08-05T14:25:19.146Z,41.14
2022-08-05T14:28:26.548Z,43.85
2022-08-05T14:32:03.704Z,44.29
2022-08-05T14:34:53.742Z,44.50
2022-08-05T14:37:58.507Z,45.76
2022-08-05T14:41:06.139Z,45.08
2022-08-05T14:44:20.596Z,46.12
2022-08-05T14:48:02.468Z,46.14
2022-08-05T14:50:48.714Z,44.20
2022-08-05T14:54:26.283Z,44.27
2022-08-05T14:57:15.554Z,43.42
2022-08-05T15:00:21.539Z,43.29
2022-08-05T15:03:33.606Z,44.04
2022-08-05T15:06:37.231Z,46.18
2022-08-05T15:09:51.617Z,45.76
2022-08-05T15:13:03.754Z,46.19
2022-08-05T15:16:08.089Z,47.16
2022-08-05T15:19:23.171Z,46.90
2022-08-05T15:22:28.461Z,48.35
2022-08-05T15:25:51.667Z,49.30
2022-08-05T15:28:54.608Z,50.47
2022-08-05T15:32:02.958Z,50.90
2022-08-05T15:35:10.575Z,51.07
2022-08-05T15:38:34.146Z,48.10
2022-08-05T15:41:56.190Z,50.31
2022-08-05T15:45:01.052Z,48.27
2022-08-05T15:48:04.604Z,48.79
2022-08-05T15:51:07.686Z,47.29
2022-08-05T15:54:11.045Z,49.01
2022-08-05T15:57:18.095Z,48.66
2022-08-05T16:00:26.167Z,50.57
2022-08-05T16:03:35.868Z,49.47
2022-08-05T16:06:44.346Z,49.11
2022-08-05T16:09:49.446Z,49.02
2022-08-05T16:12:52.409Z,49.96
2022-08-05T16:15:58.824Z,50.05
2022-08-05T16:19:02.350Z,49.96
2022-08-05T16:22:06.060Z,49.60
2022-08-05T16:25:10.264Z,48.27
2022-08-05T16:28:14.173Z,48.85
2022-08-05T16:31:18.680Z,49.31
2022-08-05T16:34:23.184Z,49.55
2022-08-05T16:38:16.147Z,49.37
2022-08-05T16:40:55.606Z,47.99
2022-08-05T16:44:04.870Z,48.63
2022-08-05T16:47:07.929Z,48.83
2022-08-05T16:50:30.785Z,49.24
2022-08-05T16:54:04.273Z,49.19
2022-08-05T16:56:58.026Z,48.56
2022-08-05T17:00:08.336Z,48.14
2022-08-05T17:03:15.237Z,48.25
2022-08-05T17:06:24.462Z,46.85
2022-08-05T17:09:57.612Z,46.87
2022-08-05T17:12:55.640Z,46.86
2022-08-05T17:16:13.162Z,45.44
2022-08-05T17:19:22.244Z,43.29
2022-08-05T17:22:25.953Z,41.61
2022-08-05T17:25:39.525Z,40.07
2022-08-05T17:28:43.447Z,38.75
2022-08-05T17:31:58.499Z,37.31
2022-08-05T17:35:02.389Z,36.46
2022-08-05T17:38:09.045Z,35.51
2022-08-05T17:42:18.544Z,35.24
2022-08-05T17:44:34.914Z,34.57
2022-08-05T17:47:38.984Z,34.18
2022-08-05T17:50:42.234Z,33.93
2022-08-05T17:53:53.563Z,33.61
2022-08-05T17:56:57.711Z,33.39
2022-08-05T18:00:03.685Z,33.26
2022-08-05T18:03:08.756Z,33.06
2022-08-05T18:06:14.958Z,32.88
2022-08-05T18:09:18.703Z,32.87
2022-08-05T18:12:22.365Z,32.56
2022-08-05T18:15:31.192Z,32.62
2022-08-05T18:18:39.589Z,32.54
2022-08-05T18:22:09.010Z,32.27
2022-08-05T18:25:06.860Z,32.26
2022-08-05T18:28:10.011Z,32.10
2022-08-05T18:31:12.807Z,31.91
2022-08-05T18:34:21.537Z,32.04
2022-08-05T18:37:34.619Z,31.90
2022-08-05T18:41:58.087Z,31.95
2022-08-05T18:44:08.087Z,31.73
2022-08-05T18:47:12.316Z,31.60
2022-08-05T18:50:42.247Z,31.53
2022-08-05T18:53:50.419Z,31.64
2022-08-05T18:56:53.790Z,31.46
2022-08-05T19:00:02.479Z,31.32
2022-08-05T19:03:07.370Z,31.13
2022-08-05T19:06:22.052Z,31.04
2022-08-05T19:09:25.326Z,30.99
2022-08-05T19:12:32.596Z,30.93
2022-08-05T19:15:58.828Z,31.14
2022-08-05T19:18:59.548Z,31.10
2022-08-05T19:22:02.626Z,31.10
2022-08-05T19:25:06.176Z,31.03
2022-08-05T19:28:11.091Z,31.01
2022-08-05T19:31:19.295Z,31.00
2022-08-05T19:34:25.153Z,30.66
2022-08-05T19:37:47.467Z,30.40
2022-08-05T19:40:52.978Z,30.32
2022-08-05T19:44:05.887Z,30.28
2022-08-05T19:47:16.359Z,30.43
2022-08-05T19:50:20.505Z,30.29
2022-08-05T19:54:05.012Z,30.21
2022-08-05T19:56:49.984Z,30.34
2022-08-05T20:00:00.823Z,30.39
2022-08-05T20:03:14.327Z,30.28
2022-08-05T20:06:29.323Z,30.22
2022-08-05T20:09:54.749Z,30.16
2022-08-05T20:12:56.741Z,30.11
2022-08-05T20:15:59.879Z,30.04
2022-08-05T20:19:03.872Z,29.85
2022-08-05T20:22:06.895Z,29.36
2022-08-05T20:25:12.706Z,29.35
2022-08-05T20:28:15.523Z,29.21
2022-08-05T20:31:21.804Z,29.09
2022-08-05T20:34:31.521Z,29.08
2022-08-05T20:38:06.307Z,28.98
2022-08-05T20:40:58.708Z,28.87
2022-08-05T20:44:17.421Z,28.47
2022-08-05T20:47:32.130Z,28.64
2022-08-05T20:50:39.705Z,28.65
2022-08-05T20:53:56.421Z,28.43
2022-08-05T20:57:00.379Z,28.28
2022-08-05T21:00:19.706Z,28.23
2022-08-05T21:03:24.661Z,28.19
2022-08-05T21:06:29.707Z,27.96
2022-08-05T21:09:33.723Z,27.82
2022-08-05T21:12:36.893Z,27.71
2022-08-05T21:15:44.459Z,27.63
2022-08-05T21:18:53.970Z,27.52
2022-08-05T21:21:58.519Z,27.42
2022-08-05T21:25:01.307Z,27.35
2022-08-05T21:28:05.028Z,27.19
2022-08-05T21:31:07.945Z,27.16
2022-08-05T21:34:12.556Z,27.10
2022-08-05T21:37:15.591Z,26.97
2022-08-05T21:40:18.676Z,27.00
2022-08-05T21:43:24.846Z,26.97
2022-08-05T21:46:28.615Z,26.94
2022-08-05T21:49:59.336Z,26.90
2022-08-05T21:52:58.915Z,26.90
2022-08-05T21:56:16.856Z,26.89
2022-08-05T21:59:23.904Z,26.88
2022-08-05T22:02:27.838Z,26.82
2022-08-05T22:05:48.588Z,26.71
2022-08-05T22:08:52.728Z,26.65
2022-08-05T22:11:55.864Z,26.61
2022-08-05T22:14:59.780Z,26.62
2022-08-05T22:18:03.061Z,26.36
2022-08-05T22:21:19.366Z,26.29
2022-08-05T22:24:51.820Z,26.22
2022-08-05T22:28:10.348Z,26.22
2022-08-05T22:31:15.273Z,26.40
2022-08-05T22:34:25.459Z,26.48
2022-08-05T22:37:59.039Z,26.63
2022-08-05T22:40:54.930Z,26.71
2022-08-05T22:43:59.443Z,26.72
2022-08-05T22:47:05.662Z,26.88
2022-08-05T22:50:20.330Z,27.01
2022-08-05T22:53:25.731Z,27.09
2022-08-05T22:56:39.970Z,27.15
2022-08-05T22:59:53.934Z,27.23
2022-08-05T23:02:58.104Z,27.45
2022-08-05T23:06:01.072Z,27.58
2022-08-05T23:09:26.951Z,27.50
2022-08-05T23:12:28.909Z,27.60
2022-08-05T23:15:35.346Z,27.52
2022-08-05T23:18:39.309Z,27.17
2022-08-05T23:21:48.341Z,26.87
2022-08-05T23:24:51.673Z,26.73
2022-08-05T23:27:57.838Z,26.60
2022-08-05T23:31:16.036Z,26.41
2022-08-05T23:34:24.598Z,26.28
2022-08-05T23:37:36.562Z,26.20
2022-08-05T23:40:39.877Z,26.13
2022-08-05T23:44:04.646Z,26.28
2022-08-05T23:47:15.025Z,26.44
2022-08-05T23:50:20.324Z,26.57
2022-08-05T23:53:24.560Z,26.61
2022-08-05T23:56:31.478Z,26.65
